Terminal Aerodrome Forecast
Issued by NWS

Home | Current Version | Previous Version | Text Only | Print | Product List | Glossary On
Versions: 1 2 3 4 5 6 7 8 9 10 11 12 13
000
FTUS45 KLKN 252320
TAFELY
TAF
KELY 252320Z 2600/2624 16011KT P6SM BKN100
     FM260300 VRB06KT P6SM SCT100
     FM260700 18008KT P6SM SKC
     FM261800 30010G20KT P6SM SCT100=

USA.gov is the U.S. government's official web portal to all federal, state and local government web resources and services.